createdAt,value
2023-02-24T00:02:06.094Z,17.27
2023-02-24T00:04:39.782Z,17.77
2023-02-24T00:07:08.091Z,18.75
2023-02-24T00:09:34.621Z,17.73
2023-02-24T00:12:05.044Z,18.10
2023-02-24T00:14:36.718Z,18.65
2023-02-24T00:17:04.195Z,17.20
2023-02-24T00:19:32.776Z,19.00
2023-02-24T00:22:04.331Z,17.15
2023-02-24T00:24:31.371Z,17.38
2023-02-24T00:27:00.582Z,18.35
2023-02-24T00:29:29.981Z,18.60
2023-02-24T00:32:01.168Z,17.70
2023-02-24T00:34:33.630Z,17.25
2023-02-24T00:37:00.561Z,18.83
2023-02-24T00:39:34.186Z,18.08
2023-02-24T00:42:05.637Z,17.45
2023-02-24T00:44:37.867Z,19.23
2023-02-24T00:47:06.870Z,17.60
2023-02-24T00:49:36.046Z,17.27
2023-02-24T00:52:06.676Z,18.20
2023-02-24T00:54:36.782Z,17.85
2023-02-24T00:57:03.812Z,17.75
2023-02-24T00:59:30.542Z,17.95
2023-02-24T01:01:57.091Z,18.38
2023-02-24T01:04:23.725Z,18.02
2023-02-24T01:06:59.967Z,17.45
2023-02-24T01:09:29.292Z,18.17
2023-02-24T01:12:22.410Z,17.13
2023-02-24T01:14:51.201Z,18.23
2023-02-24T01:17:19.317Z,17.55
2023-02-24T01:19:49.090Z,17.42
2023-02-24T01:22:17.441Z,17.60
2023-02-24T01:24:45.003Z,17.17
2023-02-24T01:27:17.727Z,17.48
2023-02-24T01:29:45.384Z,18.52
2023-02-24T01:32:19.156Z,18.42
2023-02-24T01:34:46.721Z,18.13
2023-02-24T01:37:16.585Z,18.13
2023-02-24T01:42:16.969Z,18.67
2023-02-24T01:44:43.738Z,17.92
2023-02-24T01:47:11.301Z,18.25
2023-02-24T01:49:42.499Z,18.85
2023-02-24T01:52:13.836Z,19.23
2023-02-24T01:54:55.244Z,19.73
2023-02-24T01:57:24.326Z,20.95
2023-02-24T01:59:54.099Z,20.07
2023-02-24T02:02:23.138Z,19.52
2023-02-24T02:04:57.325Z,18.73
2023-02-24T02:07:26.850Z,19.45
2023-02-24T02:09:55.158Z,18.42
2023-02-24T02:12:22.830Z,19.20
2023-02-24T02:14:55.990Z,19.23
2023-02-24T02:17:33.284Z,19.90
2023-02-24T02:20:18.160Z,19.42
2023-02-24T02:23:12.438Z,19.70
2023-02-24T02:25:44.954Z,19.40
2023-02-24T02:28:23.993Z,20.70
2023-02-24T02:31:29.554Z,19.73
2023-02-24T02:34:02.159Z,20.63
2023-02-24T02:36:28.679Z,21.10
2023-02-24T02:39:20.334Z,20.13
2023-02-24T02:41:56.566Z,21.20
2023-02-24T02:44:39.793Z,20.38
2023-02-24T02:47:18.655Z,20.45
2023-02-24T02:49:52.000Z,20.73
2023-02-24T02:52:36.067Z,21.92
2023-02-24T02:55:30.675Z,20.52
2023-02-24T02:58:00.397Z,22.52
2023-02-24T03:00:35.203Z,21.88
2023-02-24T03:03:09.913Z,21.85
2023-02-24T03:05:47.033Z,21.65
2023-02-24T03:08:19.023Z,21.48
2023-02-24T03:10:51.150Z,21.90
2023-02-24T03:13:24.063Z,20.80
2023-02-24T03:15:52.715Z,22.15
2023-02-24T03:18:29.104Z,21.50
2023-02-24T03:21:07.636Z,21.45
2023-02-24T03:23:46.160Z,21.42
2023-02-24T03:26:23.043Z,20.60
2023-02-24T03:28:54.001Z,21.70
2023-02-24T03:31:29.576Z,21.88
2023-02-24T03:34:12.967Z,21.85
2023-02-24T03:36:39.681Z,22.42
2023-02-24T03:39:11.248Z,23.20
2023-02-24T03:41:48.772Z,23.60
2023-02-24T03:44:15.495Z,23.50
2023-02-24T03:46:42.811Z,24.27
2023-02-24T03:49:13.632Z,24.02
2023-02-24T03:51:44.871Z,24.05
2023-02-24T03:54:42.925Z,25.25
2023-02-24T03:57:12.593Z,24.77
2023-02-24T03:59:42.078Z,25.52
2023-02-24T04:02:14.398Z,25.15
2023-02-24T04:04:56.763Z,26.30
2023-02-24T04:07:42.962Z,26.45
2023-02-24T04:10:29.052Z,26.30
2023-02-24T04:13:04.297Z,25.83
2023-02-24T04:15:43.746Z,28.20
2023-02-24T04:18:21.688Z,25.50
2023-02-24T04:20:53.461Z,25.92
2023-02-24T04:23:26.868Z,26.98
2023-02-24T04:25:56.411Z,26.65
2023-02-24T04:28:24.706Z,28.60
2023-02-24T04:30:56.057Z,27.20
2023-02-24T04:33:23.898Z,28.95
2023-02-24T04:35:51.214Z,28.20
2023-02-24T04:38:18.527Z,30.00
2023-02-24T04:40:45.690Z,29.67
2023-02-24T04:43:13.112Z,29.77
2023-02-24T04:45:40.225Z,29.80
2023-02-24T04:48:12.733Z,30.73
2023-02-24T04:50:43.093Z,30.60
2023-02-24T04:53:15.285Z,30.15
2023-02-24T04:55:48.795Z,31.65
2023-02-24T04:58:19.648Z,32.90
2023-02-24T05:01:01.125Z,31.83
2023-02-24T05:03:30.524Z,33.85
2023-02-24T05:06:00.396Z,31.75
2023-02-24T05:10:56.839Z,31.33
2023-02-24T05:13:28.070Z,33.03
2023-02-24T05:15:57.306Z,34.13
2023-02-24T05:18:24.726Z,37.67
2023-02-24T05:21:14.414Z,35.47
2023-02-24T05:23:46.740Z,36.10
2023-02-24T05:26:17.196Z,36.55
2023-02-24T05:28:49.236Z,35.67
2023-02-24T05:31:19.478Z,35.72
2023-02-24T05:33:49.487Z,35.03
2023-02-24T05:36:19.243Z,36.97
2023-02-24T05:38:56.611Z,35.58
2023-02-24T05:41:32.568Z,35.30
2023-02-24T05:44:02.586Z,35.00
2023-02-24T05:46:32.617Z,32.33
2023-02-24T05:49:09.199Z,34.03
2023-02-24T05:51:39.212Z,33.65
2023-02-24T05:54:09.450Z,33.88
2023-02-24T05:56:38.814Z,33.22
2023-02-24T05:59:09.187Z,31.35
2023-02-24T06:01:41.464Z,32.67
2023-02-24T06:04:09.778Z,33.15
2023-02-24T06:06:38.804Z,33.17
2023-02-24T06:09:10.771Z,34.47
2023-02-24T06:11:38.490Z,34.10
2023-02-24T06:14:08.265Z,34.15
2023-02-24T06:16:37.147Z,36.58
2023-02-24T06:19:05.195Z,34.13
2023-02-24T06:21:32.139Z,36.13
2023-02-24T06:23:59.769Z,38.05
2023-02-24T06:26:29.954Z,36.38
2023-02-24T06:28:58.778Z,38.85
2023-02-24T06:31:27.600Z,38.80
2023-02-24T06:33:54.582Z,36.38
2023-02-24T06:36:21.271Z,33.22
2023-02-24T06:38:49.572Z,34.92
2023-02-24T06:41:16.458Z,33.75
2023-02-24T06:43:45.263Z,34.70
2023-02-24T06:46:13.977Z,37.13
2023-02-24T06:48:40.718Z,34.80
2023-02-24T06:51:15.836Z,33.63
2023-02-24T06:53:45.701Z,35.05
2023-02-24T06:56:15.256Z,37.50
2023-02-24T06:58:46.740Z,36.03
2023-02-24T07:01:16.571Z,33.47
2023-02-24T07:06:34.711Z,32.80
2023-02-24T07:11:33.905Z,33.45
2023-02-24T07:14:01.661Z,33.15
2023-02-24T07:16:28.985Z,33.88
2023-02-24T07:18:57.176Z,34.90
2023-02-24T07:21:25.863Z,33.65
2023-02-24T07:23:59.728Z,32.95
2023-02-24T07:26:27.883Z,34.00
2023-02-24T07:28:55.223Z,33.53
2023-02-24T07:31:24.412Z,33.88
2023-02-24T07:34:02.133Z,33.55
2023-02-24T07:36:38.886Z,35.28
2023-02-24T07:39:08.287Z,36.55
2023-02-24T07:41:35.027Z,37.42
2023-02-24T07:44:03.402Z,39.72
2023-02-24T07:46:30.492Z,40.17
2023-02-24T07:48:59.865Z,40.30
2023-02-24T07:51:30.750Z,37.97
2023-02-24T07:53:59.388Z,35.75
2023-02-24T07:56:28.402Z,32.90
2023-02-24T07:59:01.962Z,36.67
2023-02-24T08:01:39.012Z,40.88
2023-02-24T08:04:12.607Z,38.05
2023-02-24T08:06:46.242Z,39.45
2023-02-24T08:09:20.281Z,37.45
2023-02-24T08:11:52.499Z,38.03
2023-02-24T08:14:20.885Z,38.95
2023-02-24T08:16:49.723Z,39.63
2023-02-24T08:19:22.078Z,42.78
2023-02-24T08:21:52.688Z,41.72
2023-02-24T08:24:25.474Z,42.00
2023-02-24T08:27:06.630Z,42.95
2023-02-24T08:29:58.167Z,39.25
2023-02-24T08:32:26.284Z,36.80
2023-02-24T08:35:02.928Z,38.50
2023-02-24T08:37:39.746Z,41.38
2023-02-24T08:40:29.438Z,36.40
2023-02-24T08:43:16.540Z,34.95
2023-02-24T08:45:56.770Z,33.63
2023-02-24T08:48:26.674Z,35.42
2023-02-24T08:53:23.671Z,35.25
2023-02-24T08:55:51.836Z,35.93
2023-02-24T08:58:27.084Z,35.45
2023-02-24T09:00:59.511Z,34.50
2023-02-24T09:03:29.304Z,42.53
2023-02-24T09:05:59.391Z,36.33
2023-02-24T09:08:32.673Z,33.97
2023-02-24T09:11:09.974Z,48.22
2023-02-24T09:13:58.205Z,37.58
2023-02-24T09:16:25.096Z,72.15
2023-02-24T09:19:10.855Z,53.40
2023-02-24T09:21:50.401Z,35.85
2023-02-24T09:24:27.294Z,39.88
2023-02-24T09:26:59.965Z,36.72
2023-02-24T09:29:33.880Z,36.10
2023-02-24T09:32:05.447Z,35.05
2023-02-24T09:34:38.606Z,31.30
2023-02-24T09:37:05.408Z,35.67
2023-02-24T09:39:54.334Z,33.83
2023-02-24T09:42:22.727Z,31.65
2023-02-24T09:44:55.798Z,32.47
2023-02-24T09:47:40.138Z,31.75
2023-02-24T09:50:51.636Z,31.33
2023-02-24T09:53:19.973Z,39.05
2023-02-24T09:56:00.981Z,28.80
2023-02-24T09:58:50.542Z,28.45
2023-02-24T10:01:33.568Z,29.73
2023-02-24T10:04:21.362Z,30.02
2023-02-24T10:06:57.712Z,30.63
2023-02-24T10:09:27.185Z,32.30
2023-02-24T10:12:11.699Z,28.73
2023-02-24T10:15:20.740Z,31.42
2023-02-24T10:17:55.489Z,34.47
2023-02-24T10:20:39.354Z,30.30
2023-02-24T10:23:32.882Z,27.92
2023-02-24T10:26:07.574Z,27.13
2023-02-24T10:28:53.484Z,26.30
2023-02-24T10:31:29.846Z,26.63
2023-02-24T10:34:10.641Z,24.67
2023-02-24T10:36:38.074Z,25.80
2023-02-24T10:39:26.034Z,22.77
2023-02-24T10:41:57.706Z,24.60
2023-02-24T10:44:39.043Z,34.13
2023-02-24T10:47:11.901Z,30.50
2023-02-24T10:49:57.244Z,43.63
2023-02-24T10:53:02.019Z,22.45
2023-02-24T10:55:44.778Z,18.63
2023-02-24T10:58:27.925Z,17.40
2023-02-24T11:01:13.411Z,15.50
2023-02-24T11:04:00.924Z,15.10
2023-02-24T11:06:41.673Z,13.45
2023-02-24T11:09:29.235Z,14.35
2023-02-24T11:12:22.238Z,14.55
2023-02-24T11:15:14.096Z,12.57
2023-02-24T11:17:57.483Z,12.73
2023-02-24T11:20:48.909Z,13.95
2023-02-24T11:23:24.962Z,16.05
2023-02-24T11:25:58.312Z,13.48
2023-02-24T11:28:31.109Z,14.18
2023-02-24T11:31:23.859Z,13.60
2023-02-24T11:34:32.210Z,11.63
2023-02-24T11:37:06.594Z,12.82
2023-02-24T11:39:41.189Z,12.27
2023-02-24T11:42:42.086Z,12.27
2023-02-24T11:45:34.718Z,11.65
2023-02-24T11:48:04.797Z,12.55
2023-02-24T11:50:46.772Z,11.57
2023-02-24T11:53:55.034Z,11.52
2023-02-24T11:56:27.238Z,11.98
2023-02-24T11:59:12.779Z,11.63
2023-02-24T12:01:59.227Z,11.60
2023-02-24T12:04:37.906Z,10.52
2023-02-24T12:07:19.180Z,10.23
2023-02-24T12:10:07.012Z,10.10
2023-02-24T12:12:59.346Z,9.70
2023-02-24T12:15:48.769Z,8.88
2023-02-24T12:18:21.725Z,9.13
2023-02-24T12:20:57.720Z,10.00
2023-02-24T12:23:34.553Z,7.70
2023-02-24T12:26:09.117Z,8.68
2023-02-24T12:29:03.529Z,8.00
2023-02-24T12:31:45.905Z,7.63
2023-02-24T12:34:27.809Z,7.97
2023-02-24T12:37:22.282Z,7.70
2023-02-24T12:40:00.870Z,7.40
2023-02-24T12:42:27.416Z,7.68
2023-02-24T12:45:33.958Z,7.15
2023-02-24T12:48:50.181Z,7.25
2023-02-24T12:51:39.617Z,7.50
2023-02-24T12:54:34.109Z,7.05
2023-02-24T12:57:20.066Z,7.82
2023-02-24T12:59:47.445Z,6.70
2023-02-24T13:02:26.477Z,7.65
2023-02-24T13:05:13.536Z,7.60
2023-02-24T13:07:40.109Z,6.90
2023-02-24T13:10:30.984Z,7.20
2023-02-24T13:13:07.712Z,7.40
2023-02-24T13:15:34.410Z,7.55
2023-02-24T13:18:01.270Z,6.85
2023-02-24T13:20:37.867Z,6.95
2023-02-24T13:23:19.996Z,7.28
2023-02-24T13:25:55.473Z,7.20
2023-02-24T13:28:26.493Z,7.47
2023-02-24T13:31:05.950Z,7.63
2023-02-24T13:33:43.963Z,7.07
2023-02-24T13:36:17.420Z,7.03
2023-02-24T13:39:05.528Z,7.63
2023-02-24T13:41:32.130Z,7.15
2023-02-24T13:44:03.691Z,7.53
2023-02-24T13:46:50.793Z,7.32
2023-02-24T13:49:35.840Z,8.18
2023-02-24T13:52:15.778Z,7.65
2023-02-24T13:55:01.184Z,6.63
2023-02-24T13:57:42.702Z,6.90
2023-02-24T14:00:12.132Z,7.75
2023-02-24T14:02:43.048Z,6.93
2023-02-24T14:05:21.454Z,7.18
2023-02-24T14:07:50.545Z,7.18
2023-02-24T14:10:20.895Z,7.43
2023-02-24T14:12:49.815Z,7.40
2023-02-24T14:15:21.810Z,8.07
2023-02-24T14:17:59.758Z,6.97
2023-02-24T14:20:29.354Z,6.60
2023-02-24T14:22:58.874Z,7.72
2023-02-24T14:25:30.561Z,6.70
2023-02-24T14:27:57.961Z,7.30
2023-02-24T14:30:31.472Z,7.13
2023-02-24T14:32:58.707Z,6.90
2023-02-24T14:35:46.811Z,7.55
2023-02-24T14:38:39.786Z,6.65
2023-02-24T14:41:17.371Z,7.03
2023-02-24T14:43:43.955Z,7.55
2023-02-24T14:46:10.679Z,7.50
2023-02-24T14:48:37.326Z,6.70
2023-02-24T14:51:31.465Z,7.07
2023-02-24T14:54:02.999Z,7.18
2023-02-24T14:56:32.632Z,7.60
2023-02-24T14:59:16.119Z,7.05
2023-02-24T15:01:48.382Z,7.93
2023-02-24T15:04:30.989Z,7.40
2023-02-24T15:06:57.922Z,7.70
2023-02-24T15:09:29.475Z,6.93
2023-02-24T15:11:56.549Z,6.57
2023-02-24T15:14:28.898Z,6.53
2023-02-24T15:17:01.369Z,6.45
2023-02-24T15:19:38.893Z,8.98
2023-02-24T15:22:25.935Z,7.82
2023-02-24T15:24:56.015Z,8.05
2023-02-24T15:27:26.349Z,7.50
2023-02-24T15:30:26.918Z,7.00
2023-02-24T15:33:13.918Z,6.97
2023-02-24T15:35:52.800Z,6.82
2023-02-24T15:38:31.640Z,6.97
2023-02-24T15:41:02.795Z,7.20
2023-02-24T15:43:35.251Z,8.23
2023-02-24T15:46:13.982Z,6.90
2023-02-24T15:48:44.323Z,6.97
2023-02-24T15:51:22.505Z,7.03
2023-02-24T15:53:49.147Z,8.07
2023-02-24T15:56:17.600Z,8.32
2023-02-24T15:58:44.353Z,8.07
2023-02-24T16:01:14.568Z,7.80
2023-02-24T16:03:41.206Z,8.95
2023-02-24T16:06:17.328Z,9.95
2023-02-24T16:08:46.444Z,8.80
2023-02-24T16:11:15.925Z,8.70
2023-02-24T16:13:52.258Z,8.85
2023-02-24T16:16:19.901Z,8.73
2023-02-24T16:18:46.765Z,9.63
2023-02-24T16:21:13.921Z,11.13
2023-02-24T16:23:40.754Z,12.10
2023-02-24T16:26:16.343Z,12.40
2023-02-24T16:28:43.804Z,9.95
2023-02-24T16:31:10.465Z,10.90
2023-02-24T16:33:53.301Z,13.90
2023-02-24T16:36:23.916Z,13.13
2023-02-24T16:41:18.415Z,13.48
2023-02-24T16:43:45.057Z,16.13
2023-02-24T16:46:22.253Z,13.70
2023-02-24T16:48:53.219Z,12.57
2023-02-24T16:51:20.537Z,14.57
2023-02-24T16:53:47.154Z,16.50
2023-02-24T16:56:15.233Z,17.35
2023-02-24T16:58:41.901Z,14.25
2023-02-24T17:01:09.709Z,14.38
2023-02-24T17:03:43.366Z,14.75
2023-02-24T17:06:09.982Z,17.73
2023-02-24T17:08:36.882Z,17.23
2023-02-24T17:11:03.890Z,23.75
2023-02-24T17:13:30.505Z,27.63
2023-02-24T17:15:57.501Z,26.92
2023-02-24T17:18:25.324Z,23.73
2023-02-24T17:20:52.689Z,22.27
2023-02-24T17:23:19.711Z,22.40
2023-02-24T17:25:52.008Z,22.23
2023-02-24T17:28:19.295Z,19.73
2023-02-24T17:30:46.616Z,17.80
2023-02-24T17:33:14.537Z,16.13
2023-02-24T17:35:46.980Z,15.15
2023-02-24T17:38:14.844Z,17.02
2023-02-24T17:40:42.799Z,16.55
2023-02-24T17:43:09.400Z,16.73
2023-02-24T17:45:36.381Z,21.95
2023-02-24T17:48:03.093Z,23.58
2023-02-24T17:50:29.723Z,29.65
2023-02-24T17:52:57.651Z,28.17
2023-02-24T17:55:24.326Z,25.55
2023-02-24T17:57:51.036Z,27.52
2023-02-24T18:00:18.034Z,27.35
2023-02-24T18:02:44.847Z,26.48
2023-02-24T18:05:11.544Z,28.38
2023-02-24T18:07:38.296Z,29.48
2023-02-24T18:10:05.993Z,27.67
2023-02-24T18:12:32.635Z,27.10
2023-02-24T18:15:07.955Z,28.10
2023-02-24T18:17:36.557Z,26.92
2023-02-24T18:20:03.855Z,24.85
2023-02-24T18:22:30.501Z,23.73
2023-02-24T18:24:57.249Z,21.52
2023-02-24T18:27:23.842Z,21.92
2023-02-24T18:29:50.434Z,22.92
2023-02-24T18:32:17.262Z,23.55
2023-02-24T18:34:43.986Z,23.63
2023-02-24T18:37:10.580Z,23.08
2023-02-24T18:39:37.185Z,21.90
2023-02-24T18:42:03.953Z,17.95
2023-02-24T18:44:31.203Z,17.20
2023-02-24T18:46:57.850Z,17.45
2023-02-24T18:49:24.557Z,18.15
2023-02-24T18:51:51.177Z,19.63
2023-02-24T18:54:17.736Z,20.17
2023-02-24T18:56:44.384Z,19.88
2023-02-24T18:59:11.010Z,19.20
2023-02-24T19:01:39.777Z,18.33
2023-02-24T19:04:08.254Z,19.35
2023-02-24T19:06:35.869Z,17.95
2023-02-24T19:09:07.205Z,18.05
2023-02-24T19:11:34.281Z,19.48
2023-02-24T19:14:00.986Z,17.75
2023-02-24T19:16:28.624Z,17.30
2023-02-24T19:18:57.311Z,17.98
2023-02-24T19:21:25.484Z,16.90
2023-02-24T19:23:52.205Z,16.27
2023-02-24T19:26:22.535Z,16.45
2023-02-24T19:28:50.637Z,15.35
2023-02-24T19:31:21.080Z,15.65
2023-02-24T19:34:01.834Z,15.85
2023-02-24T19:36:29.933Z,14.55
2023-02-24T19:38:56.509Z,14.15
2023-02-24T19:41:23.427Z,14.40
2023-02-24T19:43:50.048Z,15.63
2023-02-24T19:46:17.931Z,15.13
2023-02-24T19:48:46.004Z,13.65
2023-02-24T19:51:14.502Z,13.77
2023-02-24T19:53:41.487Z,13.15
2023-02-24T19:56:08.493Z,13.45
2023-02-24T19:58:35.926Z,14.25
2023-02-24T20:01:10.582Z,14.75
2023-02-24T20:03:38.984Z,13.80
2023-02-24T20:06:06.081Z,14.55
2023-02-24T20:08:35.201Z,14.57
2023-02-24T20:11:04.905Z,14.68
2023-02-24T20:13:31.588Z,14.30
2023-02-24T20:16:06.996Z,15.30
2023-02-24T20:18:33.693Z,16.48
2023-02-24T20:21:01.313Z,15.90
2023-02-24T20:23:28.177Z,16.48
2023-02-24T20:25:56.910Z,16.42
2023-02-24T20:28:24.119Z,16.30
2023-02-24T20:30:51.409Z,16.67
2023-02-24T20:33:18.437Z,15.13
2023-02-24T20:35:45.759Z,16.08
2023-02-24T20:38:13.963Z,16.13
2023-02-24T20:40:40.865Z,16.05
2023-02-24T20:43:09.984Z,15.27
2023-02-24T20:45:38.310Z,16.23
2023-02-24T20:48:04.988Z,15.80
2023-02-24T20:50:31.546Z,15.25
2023-02-24T20:52:58.141Z,16.35
2023-02-24T20:55:24.899Z,15.05
2023-02-24T20:57:51.490Z,16.40
2023-02-24T21:00:18.373Z,15.45
2023-02-24T21:02:45.133Z,15.48
2023-02-24T21:05:21.070Z,15.82
2023-02-24T21:07:50.143Z,15.95
2023-02-24T21:10:18.298Z,17.27
2023-02-24T21:12:45.287Z,17.52
2023-02-24T21:15:12.346Z,15.70
2023-02-24T21:17:39.634Z,16.88
2023-02-24T21:20:07.464Z,19.05
2023-02-24T21:22:34.078Z,16.70
2023-02-24T21:25:00.665Z,17.05
2023-02-24T21:27:27.352Z,17.58
2023-02-24T21:29:54.119Z,18.05
2023-02-24T21:32:20.797Z,18.90
2023-02-24T21:34:47.425Z,17.08
2023-02-24T21:37:13.979Z,16.17
2023-02-24T21:39:40.511Z,16.45
2023-02-24T21:42:07.597Z,16.55
2023-02-24T21:44:34.176Z,16.02
2023-02-24T21:47:00.707Z,16.75
2023-02-24T21:49:27.276Z,15.93
2023-02-24T21:51:55.213Z,16.13
2023-02-24T21:54:22.121Z,15.70
2023-02-24T21:56:48.731Z,16.00
2023-02-24T21:59:15.297Z,16.58
2023-02-24T22:01:44.546Z,17.25
2023-02-24T22:04:13.815Z,16.65
2023-02-24T22:06:42.040Z,15.77
2023-02-24T22:09:10.406Z,15.93
2023-02-24T22:11:39.706Z,14.75
2023-02-24T22:14:09.259Z,16.20
2023-02-24T22:16:36.222Z,15.63
2023-02-24T22:19:03.790Z,15.88
2023-02-24T22:21:30.906Z,13.82
2023-02-24T22:24:00.190Z,16.05
2023-02-24T22:26:29.474Z,15.25
2023-02-24T22:28:56.963Z,14.52
2023-02-24T22:31:27.300Z,15.55
2023-02-24T22:33:55.705Z,14.95
2023-02-24T22:36:25.331Z,14.88
2023-02-24T22:38:52.826Z,15.93
2023-02-24T22:41:22.494Z,15.93
2023-02-24T22:43:49.596Z,15.30
2023-02-24T22:46:22.839Z,14.00
2023-02-24T22:48:50.419Z,14.48
2023-02-24T22:51:18.606Z,14.35
2023-02-24T22:53:47.464Z,14.48
2023-02-24T22:56:16.186Z,14.85
2023-02-24T22:58:43.531Z,15.35
2023-02-24T23:01:12.612Z,15.77
2023-02-24T23:03:40.252Z,16.23
2023-02-24T23:06:09.518Z,15.48
2023-02-24T23:08:38.058Z,19.02
2023-02-24T23:11:27.860Z,15.77
2023-02-24T23:13:56.095Z,16.98
2023-02-24T23:16:31.838Z,17.08
2023-02-24T23:19:00.953Z,15.52
2023-02-24T23:21:34.913Z,15.40
2023-02-24T23:24:01.949Z,16.30
2023-02-24T23:26:32.686Z,16.48
2023-02-24T23:28:59.632Z,16.30
2023-02-24T23:31:27.095Z,16.67
2023-02-24T23:33:54.906Z,15.85
2023-02-24T23:36:23.856Z,15.18
2023-02-24T23:38:51.096Z,16.48
2023-02-24T23:41:17.734Z,14.48
2023-02-24T23:43:44.315Z,14.85
2023-02-24T23:46:12.622Z,14.25
2023-02-24T23:48:39.798Z,13.68
2023-02-24T23:51:09.074Z,13.95
2023-02-24T23:53:41.311Z,14.18
2023-02-24T23:56:16.581Z,14.23
2023-02-24T23:58:44.086Z,16.40
